Time;durP1;ratioP1;P1;durP2;ratioP2;P2;SDS_P1;SDS_P2;PMS_P1;PMS_P2;Temp;Humidity;BMP_temperature;BMP_pressure;BME280_temperature;BME280_humidity;BME280_pressure;Samples;Min_cycle;Max_cycle;Signal;HPM_P1;HPM_P2
2022/05/16 00:01:13;;;;;;;15.80;6.00;;;;;;;9.80;45.37;99325.50;105099;1285;108287;-69
2022/05/16 00:03:42;;;;;;;16.00;5.70;;;;;;;9.75;45.53;99326.35;105215;1284;100011;-67
2022/05/16 00:06:10;;;;;;;18.40;6.50;;;;;;;9.73;45.56;99326.53;105095;1285;99253;-67
2022/05/16 00:08:38;;;;;;;16.70;5.40;;;;;;;9.69;45.35;99328.21;105242;1284;114157;-69
2022/05/16 00:11:07;;;;;;;16.20;5.30;;;;;;;9.62;45.56;99324.58;105312;1284;97072;-68
2022/05/16 00:13:36;;;;;;;15.00;5.30;;;;;;;9.55;45.55;99324.44;105255;1284;108830;-68
2022/05/16 00:16:04;;;;;;;21.70;5.70;;;;;;;9.49;45.87;99324.11;105291;1284;99324;-68
2022/05/16 00:18:32;;;;;;;13.40;5.20;;;;;;;9.50;46.18;99323.04;105269;1285;99247;-67
2022/05/16 00:21:01;;;;;;;16.20;5.50;;;;;;;9.53;46.13;99320.71;105217;1284;113337;-69
2022/05/16 00:23:29;;;;;;;13.20;4.60;;;;;;;9.52;46.09;99318.97;105264;1284;99346;-69
2022/05/16 00:25:57;;;;;;;14.30;4.90;;;;;;;9.47;46.08;99315.77;105341;1283;107890;-68
2022/05/16 00:28:25;;;;;;;16.40;5.60;;;;;;;9.41;46.23;99314.55;105334;1282;99904;-69
2022/05/16 00:30:55;;;;;;;16.40;5.50;;;;;;;9.39;46.30;99318.19;105378;1283;99348;-68
2022/05/16 00:33:24;;;;;;;18.20;5.90;;;;;;;9.33;46.02;99321.46;105333;1283;113866;-68
2022/05/16 00:35:53;;;;;;;15.40;5.60;;;;;;;9.17;45.88;99323.49;105338;1284;98356;-67
2022/05/16 00:38:21;;;;;;;19.90;6.10;;;;;;;9.04;46.20;99325.86;105279;1284;108105;-68
2022/05/16 00:40:49;;;;;;;18.60;6.50;;;;;;;8.97;46.39;99323.68;105218;1284;99316;-68
2022/05/16 00:43:41;;;;;;;14.50;5.70;;;;;;;8.93;46.71;99323.17;105297;1284;99348;-69
2022/05/16 00:46:12;;;;;;;15.20;5.40;;;;;;;8.93;47.05;99323.89;105025;1287;113413;-68
2022/05/16 00:48:40;;;;;;;19.30;5.90;;;;;;;8.95;47.19;99319.20;105288;1284;99141;-66
2022/05/16 00:51:20;;;;;;;18.00;5.70;;;;;;;8.94;46.89;99317.46;105259;1284;108484;-67
2022/05/16 00:53:54;;;;;;;15.20;5.20;;;;;;;8.87;47.36;99314.16;105273;1284;99289;-65
2022/05/16 00:56:28;;;;;;;15.90;5.70;;;;;;;8.87;46.96;99318.12;105337;1284;99196;-68
2022/05/16 00:58:57;;;;;;;17.10;5.80;;;;;;;8.80;47.14;99315.85;105254;1284;113920;-67
2022/05/16 01:07:00;;;;;;;15.40;5.60;;;;;;;8.72;47.51;99308.73;105286;1284;97844;-68
2022/05/16 01:09:31;;;;;;;19.60;6.30;;;;;;;8.70;47.87;99310.83;105342;1284;99164;-67
2022/05/16 01:12:00;;;;;;;14.40;5.90;;;;;;;8.70;47.76;99313.09;105380;1284;112791;-70
2022/05/16 01:14:56;;;;;;;16.70;6.10;;;;;;;8.64;47.40;99311.70;105352;1284;99217;-69
2022/05/16 01:17:24;;;;;;;16.30;5.80;;;;;;;8.44;47.74;99310.58;105301;1284;108274;-69
2022/05/16 01:19:53;;;;;;;18.60;6.40;;;;;;;8.31;47.69;99306.23;105327;1283;99326;-67
2022/05/16 01:22:51;;;;;;;21.20;5.90;;;;;;;8.22;47.55;99307.77;105415;1284;99680;-67
2022/05/16 01:25:28;;;;;;;16.70;6.20;;;;;;;8.14;48.06;99308.79;105411;1284;113464;-68
2022/05/16 01:28:04;;;;;;;21.50;6.40;;;;;;;8.12;48.02;99311.59;105322;1284;99247;-68
2022/05/16 01:30:41;;;;;;;17.60;5.80;;;;;;;8.13;48.58;99314.52;105242;1284;108444;-68
2022/05/16 01:33:09;;;;;;;18.10;6.20;;;;;;;8.14;48.00;99314.63;105319;1284;99333;-67
2022/05/16 01:35:37;;;;;;;19.90;5.80;;;;;;;8.13;48.41;99316.11;105330;1284;99352;-67
2022/05/16 01:38:26;;;;;;;17.00;6.10;;;;;;;8.17;48.80;99312.85;105249;1284;113420;-67
2022/05/16 01:40:59;;;;;;;13.80;5.50;;;;;;;8.24;49.07;99315.62;105174;1285;97941;-68
2022/05/16 01:43:31;;;;;;;15.70;5.80;;;;;;;8.28;48.97;99309.92;105150;1285;107800;-67
2022/05/16 01:46:00;;;;;;;17.90;6.00;;;;;;;8.29;48.86;99310.94;105281;1284;99207;-67
2022/05/16 01:48:30;;;;;;;17.40;5.60;;;;;;;8.26;49.04;99310.22;105313;1284;99923;-66
2022/05/16 01:51:03;;;;;;;15.60;5.40;;;;;;;8.28;49.32;99307.27;105300;1284;113436;-67
2022/05/16 01:53:31;;;;;;;16.20;5.50;;;;;;;8.30;49.29;99308.36;105332;1284;99131;-69
2022/05/16 01:56:00;;;;;;;16.60;5.90;;;;;;;8.28;49.25;99311.01;105296;1284;108386;-68
2022/05/16 01:58:29;;;;;;;14.70;5.40;;;;;;;8.18;49.03;99311.02;105272;1284;99240;-67
2022/05/16 02:00:59;;;;;;;13.60;5.30;;;;;;;8.11;49.07;99313.20;105314;1284;97849;-68
2022/05/16 02:03:29;;;;;;;18.00;6.00;;;;;;;8.03;49.15;99312.04;105327;1284;112761;-67
2022/05/16 02:05:59;;;;;;;14.10;5.20;;;;;;;7.97;49.39;99312.98;105327;1284;96638;-68
2022/05/16 02:08:27;;;;;;;16.80;6.10;;;;;;;7.95;49.68;99307.05;105347;1284;108422;-66
2022/05/16 02:10:56;;;;;;;14.80;5.50;;;;;;;7.97;49.92;99303.56;105339;1284;96692;-69
2022/05/16 02:13:24;;;;;;;16.00;5.90;;;;;;;8.01;50.01;99304.73;105314;1284;99277;-69
2022/05/16 02:15:53;;;;;;;14.80;5.50;;;;;;;8.06;49.90;99304.34;105365;1284;113252;-68
2022/05/16 02:18:22;;;;;;;16.60;5.40;;;;;;;8.10;50.11;99309.92;105409;1284;96734;-68
2022/05/16 02:24:38;;;;;;;11.70;4.70;;;;;;;8.13;50.11;99307.45;105399;1284;108675;-68
2022/05/16 02:26:29;;;;;;;16.00;5.70;;;;;;;8.13;50.28;99306.74;105497;1284;99204;-68
2022/05/16 02:28:58;;;;;;;14.40;5.00;;;;;;;8.10;50.32;99309.91;105332;1283;113111;-67
2022/05/16 02:31:26;;;;;;;14.50;5.30;;;;;;;8.11;50.60;99310.38;105278;1284;99023;-67
2022/05/16 02:33:54;;;;;;;13.80;5.10;;;;;;;8.12;50.45;99306.95;105153;1285;107801;-68
2022/05/16 02:36:24;;;;;;;16.10;4.80;;;;;;;8.09;50.25;99307.67;105259;1284;99322;-68
2022/05/16 02:38:52;;;;;;;18.30;5.90;;;;;;;7.98;50.12;99312.70;105269;1284;99187;-67
2022/05/16 02:41:20;;;;;;;15.90;5.40;;;;;;;7.87;50.22;99312.13;105288;1284;112493;-68
2022/05/16 02:43:48;;;;;;;15.80;5.20;;;;;;;7.76;50.36;99312.89;105312;1284;99363;-69
2022/05/16 02:46:16;;;;;;;18.00;5.40;;;;;;;7.70;50.65;99313.41;105303;1284;108261;-65
2022/05/16 02:48:45;;;;;;;17.40;6.10;;;;;;;7.67;50.73;99316.23;105317;1284;99275;-67
2022/05/16 02:51:13;;;;;;;15.50;5.20;;;;;;;7.66;50.68;99312.60;105372;1284;99936;-66
2022/05/16 02:53:42;;;;;;;13.30;5.00;;;;;;;7.61;50.41;99309.69;105376;1284;112886;-69
2022/05/16 02:56:11;;;;;;;16.30;5.30;;;;;;;7.54;50.63;99310.59;105306;1284;96752;-69
2022/05/16 02:58:40;;;;;;;17.90;5.50;;;;;;;7.53;50.88;99307.51;105267;1284;108812;-67
2022/05/16 03:01:13;;;;;;;13.60;5.30;;;;;;;7.52;51.21;99309.31;105252;1284;97706;-68
2022/05/16 03:03:42;;;;;;;14.70;5.40;;;;;;;7.52;51.05;99312.88;105239;1284;96753;-67
2022/05/16 03:06:11;;;;;;;15.70;5.50;;;;;;;7.44;51.19;99314.33;105287;1284;113421;-67
2022/05/16 03:08:41;;;;;;;12.90;5.20;;;;;;;7.41;51.45;99316.27;105219;1285;99100;-68
2022/05/16 03:11:10;;;;;;;16.60;5.20;;;;;;;7.41;51.73;99318.89;105197;1285;108512;-67
2022/05/16 03:13:38;;;;;;;14.90;5.30;;;;;;;7.41;51.60;99314.85;105334;1284;99726;-67
2022/05/16 03:16:06;;;;;;;15.10;5.60;;;;;;;7.42;51.78;99314.48;105290;1284;99267;-69
2022/05/16 03:18:35;;;;;;;15.00;5.10;;;;;;;7.46;51.99;99317.23;105298;1284;113307;-68
2022/05/16 03:21:03;;;;;;;13.80;4.70;;;;;;;7.50;51.93;99318.77;105037;1287;99369;-67
2022/05/16 03:23:33;;;;;;;14.70;5.30;;;;;;;7.53;52.02;99318.46;105308;1284;108475;-68
2022/05/16 03:26:02;;;;;;;14.10;4.50;;;;;;;7.54;52.03;99322.08;105267;1284;99248;-68
2022/05/16 03:28:31;;;;;;;11.90;4.60;;;;;;;7.56;52.02;99321.95;105310;1284;99311;-66
2022/05/16 03:31:01;;;;;;;13.50;4.90;;;;;;;7.61;52.08;99322.95;105312;1284;113323;-66
2022/05/16 03:33:29;;;;;;;15.10;5.10;;;;;;;7.66;52.41;99326.52;105310;1284;99245;-66
2022/05/16 03:35:58;;;;;;;12.70;4.90;;;;;;;7.70;52.32;99326.33;105261;1284;108481;-67
2022/05/16 03:41:15;;;;;;;12.50;5.00;;;;;;;7.77;52.37;99326.28;105165;1285;100201;-68
2022/05/16 03:43:45;;;;;;;17.70;5.50;;;;;;;7.82;52.63;99327.91;104705;1284;870260;-67
2022/05/16 03:46:14;;;;;;;12.10;4.70;;;;;;;7.89;52.52;99334.23;105341;1284;96613;-67
2022/05/16 03:48:44;;;;;;;12.10;4.60;;;;;;;7.95;52.75;99334.42;105314;1284;108282;-69
2022/05/16 03:51:14;;;;;;;13.90;4.80;;;;;;;8.00;52.62;99338.73;105353;1284;99232;-67
2022/05/16 03:53:46;;;;;;;13.40;4.80;;;;;;;8.05;52.84;99334.40;105251;1284;99319;-71
2022/05/16 03:56:18;;;;;;;15.10;4.90;;;;;;;8.09;52.88;99332.96;105300;1284;113297;-69
2022/05/16 03:58:47;;;;;;;13.20;4.80;;;;;;;8.13;52.88;99336.23;105361;1284;99314;-66
2022/05/16 04:01:16;;;;;;;14.00;4.80;;;;;;;8.19;52.89;99339.39;105328;1284;107653;-68
2022/05/16 04:03:46;;;;;;;17.10;5.10;;;;;;;8.27;53.14;99339.83;105357;1284;99354;-68
2022/05/16 04:06:14;;;;;;;9.60;4.50;;;;;;;8.34;53.33;99338.34;105327;1284;96673;-68
2022/05/16 04:08:44;;;;;;;15.80;5.40;;;;;;;8.42;53.22;99342.66;105308;1284;113393;-70
2022/05/16 04:11:17;;;;;;;11.10;4.90;;;;;;;8.49;53.56;99341.02;105341;1284;99231;-68
2022/05/16 04:13:47;;;;;;;11.00;4.10;;;;;;;8.57;53.49;99342.84;105326;1284;108272;-67
2022/05/16 04:16:16;;;;;;;11.70;4.90;;;;;;;8.64;53.36;99345.30;105328;1284;99263;-67
2022/05/16 04:18:46;;;;;;;11.70;4.70;;;;;;;8.71;53.66;99342.92;105421;1284;99283;-68
2022/05/16 04:21:15;;;;;;;16.40;5.00;;;;;;;8.76;53.64;99338.55;105399;1284;113582;-68
2022/05/16 04:23:43;;;;;;;14.00;5.00;;;;;;;8.81;53.58;99338.98;105335;1284;96904;-70
2022/05/16 04:26:12;;;;;;;13.50;5.10;;;;;;;8.83;53.83;99341.32;105451;1284;108361;-67
2022/05/16 04:28:40;;;;;;;17.70;5.10;;;;;;;8.86;53.69;99344.66;105339;1284;99269;-69
2022/05/16 04:31:08;;;;;;;17.90;5.90;;;;;;;8.90;53.71;99346.05;105266;1283;96646;-69
2022/05/16 04:33:36;;;;;;;15.00;5.20;;;;;;;8.93;53.98;99347.98;105304;1283;113196;-70
2022/05/16 04:36:05;;;;;;;15.40;5.20;;;;;;;8.97;53.89;99347.90;105340;1284;99313;-69
2022/05/16 04:38:33;;;;;;;17.20;6.40;;;;;;;9.01;53.80;99350.84;105245;1283;107754;-69
2022/05/16 04:43:49;;;;;;;15.80;5.10;;;;;;;9.09;54.01;99349.66;105303;1283;99322;-70
2022/05/16 04:46:17;;;;;;;15.40;5.80;;;;;;;9.13;53.86;99348.19;105230;1283;112778;-69
2022/05/16 04:48:46;;;;;;;17.30;6.00;;;;;;;9.17;54.05;99347.69;105361;1284;99323;-69
2022/05/16 04:51:15;;;;;;;18.60;5.80;;;;;;;9.23;54.13;99346.48;105312;1283;107413;-70
2022/05/16 04:53:44;;;;;;;17.20;5.60;;;;;;;9.28;54.13;99346.69;105297;1284;99316;-68
2022/05/16 04:56:12;;;;;;;16.50;5.80;;;;;;;9.34;54.22;99350.21;105397;1284;96600;-68
2022/05/16 04:58:40;;;;;;;19.30;5.90;;;;;;;9.39;54.32;99349.88;105279;1284;112786;-69
2022/05/16 05:01:08;;;;;;;15.30;6.30;;;;;;;9.45;54.33;99349.34;105216;1284;98027;-69
2022/05/16 05:03:37;;;;;;;13.60;4.80;;;;;;;9.51;54.37;99349.48;105338;1284;108449;-69
2022/05/16 05:06:07;;;;;;;14.40;5.10;;;;;;;9.59;54.48;99347.23;105333;1283;99303;-69
2022/05/16 05:08:35;;;;;;;13.70;5.10;;;;;;;9.65;54.54;99344.51;105298;1284;96676;-69
2022/05/16 05:16:38;;;;;;;15.30;4.00;;;;;;;9.92;54.75;99344.97;105325;1284;107394;-70
2022/05/16 05:19:08;;;;;;;10.40;3.90;;;;;;;10.02;54.72;99348.87;105253;1284;99244;-67
2022/05/16 05:21:36;;;;;;;9.60;3.80;;;;;;;10.12;54.67;99346.96;105418;1283;98225;-69
2022/05/16 05:24:07;;;;;;;10.10;3.60;;;;;;;10.22;54.70;99347.75;105463;1284;113367;-68
2022/05/16 05:26:37;;;;;;;11.80;4.10;;;;;;;10.32;54.70;99344.10;105214;1285;99328;-68
2022/05/16 05:29:06;;;;;;;11.20;3.60;;;;;;;10.40;54.78;99346.38;105358;1282;107855;-69
2022/05/16 05:31:34;;;;;;;10.50;3.20;;;;;;;10.50;54.79;99343.61;105183;1284;98083;-68
2022/05/16 05:34:03;;;;;;;9.60;3.80;;;;;;;10.60;54.77;99345.42;105205;1285;99299;-70
2022/05/16 05:36:41;;;;;;;12.90;3.00;;;;;;;10.70;54.86;99349.90;105175;1284;112860;-70
2022/05/16 05:39:16;;;;;;;8.90;2.90;;;;;;;10.79;54.90;99346.61;105220;1284;99211;-70
2022/05/16 05:41:44;;;;;;;11.70;3.70;;;;;;;10.90;54.98;99344.84;105224;1284;106165;-70
2022/05/16 05:44:12;;;;;;;6.30;3.20;;;;;;;10.98;54.90;99340.64;105163;1284;99346;-70
2022/05/16 05:46:41;;;;;;;14.00;4.30;;;;;;;11.09;54.99;99337.46;105168;1284;99622;-70
2022/05/16 05:49:11;;;;;;;13.30;3.90;;;;;;;11.20;54.99;99342.86;105185;1284;112807;-69
2022/05/16 05:51:41;;;;;;;9.80;3.30;;;;;;;11.32;55.04;99344.17;105253;1284;99324;-69
2022/05/16 05:54:10;;;;;;;7.70;2.60;;;;;;;11.47;55.15;99345.92;105274;1284;108365;-69
2022/05/16 05:56:38;;;;;;;6.50;2.60;;;;;;;11.64;55.01;99341.55;105335;1284;99208;-70
2022/05/16 05:59:05;;;;;;;8.70;2.60;;;;;;;11.77;54.95;99340.24;105272;1284;99398;-72
2022/05/16 06:01:33;;;;;;;8.90;2.90;;;;;;;11.89;54.97;99340.27;105300;1284;112482;-70
2022/05/16 06:04:02;;;;;;;8.50;2.70;;;;;;;11.99;55.02;99337.39;105320;1284;99356;-73
2022/05/16 06:06:31;;;;;;;7.90;2.80;;;;;;;12.11;54.96;99337.02;105343;1284;107699;-71
2022/05/16 06:08:59;;;;;;;9.10;3.10;;;;;;;12.24;55.07;99332.34;105344;1284;99145;-70
2022/05/16 06:11:28;;;;;;;9.70;2.70;;;;;;;12.39;55.06;99333.70;105151;1284;99328;-69
2022/05/16 06:13:58;;;;;;;8.80;2.40;;;;;;;12.52;54.87;99331.48;105357;1284;112775;-68
2022/05/16 06:16:26;;;;;;;8.60;2.50;;;;;;;12.67;55.02;99331.27;105284;1284;96559;-71
2022/05/16 06:18:54;;;;;;;11.30;2.60;;;;;;;12.80;54.90;99336.35;105315;1284;107388;-71
2022/05/16 06:21:23;;;;;;;21.60;8.50;;;;;;;12.91;54.97;99336.32;105270;1284;99197;-71
2022/05/16 06:23:51;;;;;;;13.50;4.40;;;;;;;13.02;55.02;99336.94;104788;1285;99382;-71
2022/05/16 06:26:19;;;;;;;10.20;3.30;;;;;;;13.12;55.04;99337.01;105274;1284;112660;-72
2022/05/16 06:28:47;;;;;;;11.00;3.30;;;;;;;13.24;55.19;99337.15;105243;1284;98980;-71
2022/05/16 06:31:15;;;;;;;10.40;3.90;;;;;;;13.36;55.06;99334.98;104934;1285;110784;-70
2022/05/16 06:33:46;;;;;;;9.60;3.10;;;;;;;13.47;54.97;99329.87;105217;1284;99358;-69
2022/05/16 06:36:16;;;;;;;8.80;2.90;;;;;;;13.63;54.93;99328.94;105158;1284;99254;-69
2022/05/16 06:38:44;;;;;;;12.30;2.90;;;;;;;13.73;54.94;99324.36;105356;1284;112878;-69
2022/05/16 06:41:12;;;;;;;16.70;3.30;;;;;;;13.82;54.94;99325.90;105451;1284;97014;-68
2022/05/16 06:43:40;;;;;;;8.30;2.70;;;;;;;13.93;54.92;99328.09;105192;1284;108582;-68
2022/05/16 06:46:11;;;;;;;8.30;2.70;;;;;;;14.04;54.89;99333.27;105256;1284;96669;-70
2022/05/16 06:48:39;;;;;;;6.70;2.90;;;;;;;14.15;54.91;99332.13;105138;1284;99331;-68
2022/05/16 06:51:07;;;;;;;6.80;2.60;;;;;;;14.28;54.85;99330.56;105191;1284;114135;-68
2022/05/16 06:53:35;;;;;;;8.10;2.70;;;;;;;14.42;54.82;99326.71;105330;1284;99245;-66
2022/05/16 06:56:04;;;;;;;10.40;2.50;;;;;;;14.58;54.73;99333.05;105339;1284;108456;-69
2022/05/16 06:58:32;;;;;;;5.30;2.00;;;;;;;14.78;54.56;99333.31;105246;1284;99317;-68
2022/05/16 07:01:00;;;;;;;8.00;3.00;;;;;;;16.14;53.06;99330.99;105311;1284;99340;-70
2022/05/16 07:03:28;;;;;;;7.60;1.80;;;;;;;18.42;51.59;99326.70;105253;1284;113280;-71
2022/05/16 07:05:56;;;;;;;8.70;2.00;;;;;;;20.67;51.49;99325.31;105373;1284;99264;-70
2022/05/16 07:08:25;;;;;;;8.90;2.30;;;;;;;22.70;51.10;99314.30;105280;1284;107976;-69
2022/05/16 07:10:54;;;;;;;4.60;1.80;;;;;;;24.60;50.58;99315.31;105234;1284;99785;-69
2022/05/16 07:13:26;;;;;;;3.70;1.70;;;;;;;26.30;50.16;99308.94;105269;1284;96658;-70
2022/05/16 07:15:55;;;;;;;6.60;2.10;;;;;;;27.54;49.51;99309.20;105405;1282;111760;-69
2022/05/16 07:18:25;;;;;;;8.30;1.90;;;;;;;28.78;49.49;99308.08;105218;1284;99119;-70
2022/05/16 07:20:57;;;;;;;5.40;1.70;;;;;;;30.24;49.36;99311.14;105208;1284;108773;-69
2022/05/16 07:23:28;;;;;;;6.30;2.00;;;;;;;31.52;48.56;99309.96;105351;1284;97105;-70
2022/05/16 07:28:44;;;;;;;6.20;2.10;;;;;;;33.76;47.81;99313.83;105160;1284;113612;-69
2022/05/16 07:31:11;;;;;;;7.20;2.00;;;;;;;34.73;47.57;99311.20;105286;1284;99677;-69
2022/05/16 07:33:40;;;;;;;6.00;2.00;;;;;;;35.65;46.74;99317.55;105035;1284;108683;-70
2022/05/16 07:36:10;;;;;;;4.40;1.90;;;;;;;36.44;46.36;99314.70;105258;1284;99347;-70
2022/05/16 07:38:38;;;;;;;5.90;2.30;;;;;;;35.99;44.40;99310.21;105198;1284;97731;-69
2022/05/16 07:41:08;;;;;;;7.70;1.90;;;;;;;35.43;44.16;99311.93;105250;1284;113788;-69
2022/05/16 07:43:36;;;;;;;7.30;2.30;;;;;;;36.09;44.16;99307.50;105245;1284;99072;-69
2022/05/16 07:46:06;;;;;;;5.20;1.90;;;;;;;36.80;43.19;99306.58;105081;1284;108259;-70
2022/05/16 07:48:36;;;;;;;8.30;1.80;;;;;;;37.29;42.56;99312.66;105247;1284;97779;-69
2022/05/16 07:51:04;;;;;;;7.20;2.10;;;;;;;37.84;42.08;99313.02;105235;1284;99907;-69
2022/05/16 07:53:34;;;;;;;5.30;1.80;;;;;;;38.41;41.32;99319.92;105414;1284;113844;-69
2022/05/16 07:56:05;;;;;;;5.10;2.10;;;;;;;38.80;40.94;99320.06;105412;1284;98378;-69
2022/05/16 07:58:39;;;;;;;5.80;1.90;;;;;;;39.10;40.15;99317.25;105258;1285;108394;-70
2022/05/16 08:01:06;;;;;;;4.90;2.20;;;;;;;39.39;39.30;99322.33;105337;1284;99378;-70
2022/05/16 08:03:36;;;;;;;8.30;1.60;;;;;;;39.33;38.79;99325.11;105412;1284;99192;-68
2022/05/16 08:06:04;;;;;;;6.50;1.90;;;;;;;39.27;38.31;99327.34;105444;1284;113379;-69
2022/05/16 08:11:20;;;;;;;4.90;1.70;;;;;;;39.26;36.21;99326.08;105258;1284;107820;-70
2022/05/16 08:13:48;;;;;;;6.50;2.00;;;;;;;38.90;36.04;99324.98;105372;1284;99120;-69
2022/05/16 08:16:18;;;;;;;7.20;1.90;;;;;;;38.47;35.21;99327.46;105426;1284;99264;-69
2022/05/16 08:18:48;;;;;;;7.40;1.90;;;;;;;38.04;34.93;99323.69;105132;1285;112659;-70
2022/05/16 08:21:16;;;;;;;5.20;1.90;;;;;;;38.10;34.54;99321.54;105271;1284;99192;-70
2022/05/16 08:23:47;;;;;;;5.70;1.80;;;;;;;38.33;34.07;99325.46;105253;1284;108502;-69
2022/05/16 08:26:16;;;;;;;5.70;2.00;;;;;;;37.99;33.09;99322.15;105236;1284;99378;-69
2022/05/16 08:28:44;;;;;;;3.60;1.60;;;;;;;37.62;32.60;99326.59;105225;1284;99309;-68
2022/05/16 08:31:14;;;;;;;6.70;1.80;;;;;;;36.90;31.69;99321.31;105304;1284;113064;-69
2022/05/16 08:33:42;;;;;;;7.00;2.10;;;;;;;36.78;32.05;99320.61;105273;1284;97567;-69
2022/05/16 08:41:55;;;;;;;7.80;2.10;;;;;;;37.29;30.71;99322.48;105494;1283;99241;-71
2022/05/16 08:44:32;;;;;;;5.60;2.00;;;;;;;37.01;30.17;99323.41;105434;1284;113217;-70
2022/05/16 08:47:00;;;;;;;3.70;1.90;;;;;;;36.87;30.04;99322.30;105232;1284;99214;-69
2022/05/16 08:50:01;;;;;;;5.40;2.20;;;;;;;36.68;29.42;99317.73;105232;1284;108483;-70
2022/05/16 08:52:59;;;;;;;4.70;2.10;;;;;;;36.60;29.18;99325.62;105271;1284;99256;-70
2022/05/16 08:55:33;;;;;;;8.10;2.20;;;;;;;36.18;28.80;99323.81;105198;1285;99353;-68
2022/05/16 08:58:33;;;;;;;5.40;2.00;;;;;;;36.39;28.86;99321.23;105289;1283;113333;-70
2022/05/16 09:01:24;;;;;;;5.90;1.90;;;;;;;36.88;28.48;99325.69;105332;1284;99279;-71
2022/05/16 09:04:07;;;;;;;4.80;2.00;;;;;;;36.58;28.04;99318.20;105338;1284;107602;-70
2022/05/16 09:06:50;;;;;;;9.60;2.50;;;;;;;36.76;28.17;99315.52;105298;1284;99343;-71
2022/05/16 09:09:21;;;;;;;3.50;2.00;;;;;;;37.06;27.50;99313.80;105454;1284;99285;-69
2022/05/16 09:11:54;;;;;;;;;;;;;;;37.31;27.24;99311.33;105299;1285;112897;-73
2022/05/16 09:14:28;;;;;;;6.10;2.20;;;;;;;37.43;27.22;99317.29;105467;1284;99403;-71
2022/05/16 09:17:12;;;;;;;4.70;2.20;;;;;;;37.47;27.09;99313.72;105346;1284;106271;-72
2022/05/16 09:19:52;;;;;;;11.50;2.30;;;;;;;37.19;26.85;99311.14;105416;1285;97505;-69
2022/05/16 09:22:39;;;;;;;4.50;2.00;;;;;;;37.14;26.47;99306.79;105258;1285;97625;-71
2022/05/16 09:25:10;;;;;;;6.90;2.60;;;;;;;36.54;26.01;99306.12;105409;1284;113301;-70
2022/05/16 09:30:28;;;;;;;10.70;2.30;;;;;;;36.61;26.17;99308.33;105293;1284;107818;-72
2022/05/16 09:33:01;;;;;;;;;;;;;;;36.70;25.83;99309.48;105376;1284;99924;-70
2022/05/16 09:36:08;;;;;;;5.90;2.10;;;;;;;36.51;25.62;99303.95;105344;1284;97705;-69
2022/05/16 09:38:38;;;;;;;9.00;2.30;;;;;;;36.21;25.46;99302.50;105322;1284;112684;-68
2022/05/16 09:41:34;;;;;;;6.70;2.60;;;;;;;36.11;25.25;99301.61;105361;1284;97068;-70
2022/05/16 09:44:20;;;;;;;9.70;2.30;;;;;;;35.56;24.94;99296.63;105290;1284;108384;-69
2022/05/16 09:46:50;;;;;;;8.40;2.60;;;;;;;35.55;24.85;99299.55;105193;1284;96701;-70
2022/05/16 09:49:22;;;;;;;8.00;2.20;;;;;;;35.33;24.70;99294.68;105315;1283;99314;-69
2022/05/16 09:51:56;;;;;;;7.90;2.20;;;;;;;35.39;24.68;99293.98;105379;1285;112802;-69
2022/05/16 09:54:28;;;;;;;8.40;2.60;;;;;;;35.40;24.49;99294.11;105319;1284;99219;-69
2022/05/16 09:57:22;;;;;;;5.60;2.00;;;;;;;35.05;24.07;99287.48;105288;1284;107913;-70
2022/05/16 09:59:58;;;;;;;8.80;2.40;;;;;;;34.33;24.15;99294.48;105302;1284;100379;-70
2022/05/16 10:02:35;;;;;;;8.40;2.20;;;;;;;33.93;24.47;99289.97;105343;1284;98013;-68
2022/05/16 10:05:24;;;;;;;6.40;2.40;;;;;;;33.51;24.20;99290.40;105364;1284;112368;-68
2022/05/16 10:08:06;;;;;;;7.50;2.40;;;;;;;32.98;23.91;99289.04;105219;1284;97092;-68
2022/05/16 10:10:38;;;;;;;10.20;2.50;;;;;;;32.46;23.95;99282.38;105193;1284;108465;-70
2022/05/16 10:13:07;;;;;;;9.00;3.10;;;;;;;31.91;23.80;99277.95;105274;1284;99717;-79
2022/05/16 10:15:36;;;;;;;17.30;4.30;;;;;;;31.31;23.67;99272.66;105392;1284;99235;-78
2022/05/16 10:18:10;;;;;;;13.80;4.10;;;;;;;30.90;23.86;99272.17;105333;1284;111879;-77
2022/05/16 10:20:45;;;;;;;18.50;5.70;;;;;;;30.46;23.68;99272.74;105307;1284;99230;-79
2022/05/16 10:23:22;;;;;;;12.80;3.50;;;;;;;29.86;23.47;99273.41;105543;1284;108768;-81
2022/05/16 10:25:55;;;;;;;12.10;3.30;;;;;;;29.40;23.59;99271.54;105276;1285;99336;-78
2022/05/16 10:28:55;;;;;;;18.30;4.80;;;;;;;28.87;23.61;99265.52;105516;1284;99328;-79
2022/05/16 10:34:53;;;;;;;6.20;2.40;;;;;;;28.00;23.60;99267.38;105373;1284;99372;-75
2022/05/16 10:37:25;;;;;;;11.50;3.10;;;;;;;27.52;23.46;99265.94;105334;1284;107744;-80
2022/05/16 10:40:08;;;;;;;7.00;2.60;;;;;;;27.34;23.60;99260.83;105186;1285;98548;-73
2022/05/16 10:42:52;;;;;;;7.50;2.30;;;;;;;27.18;23.61;99263.63;105284;1284;99250;-75
2022/05/16 10:45:25;;;;;;;7.50;3.10;;;;;;;26.86;23.76;99258.30;105326;1284;113042;-75
2022/05/16 10:47:58;;;;;;;9.80;2.70;;;;;;;26.55;23.60;99261.77;105332;1284;99309;-72
2022/05/16 10:50:34;;;;;;;9.10;2.60;;;;;;;26.32;23.68;99260.08;105368;1284;107815;-77
2022/05/16 10:53:12;;;;;;;6.50;2.50;;;;;;;26.20;23.74;99255.00;105414;1284;99434;-75
2022/05/16 10:56:10;;;;;;;4.80;2.00;;;;;;;26.05;23.95;99249.52;105389;1284;99373;-76
2022/05/16 10:58:50;;;;;;;10.50;2.90;;;;;;;25.90;23.94;99249.53;105345;1284;112654;-77
2022/05/16 11:01:31;;;;;;;14.00;2.40;;;;;;;25.78;24.18;99250.86;105364;1284;96548;-76
2022/05/16 11:04:29;;;;;;;6.20;2.30;;;;;;;25.63;24.05;99252.22;105444;1284;107729;-76
2022/05/16 11:07:03;;;;;;;11.10;3.20;;;;;;;25.43;24.17;99254.77;105408;1284;99257;-74
2022/05/16 11:09:49;;;;;;;6.00;2.50;;;;;;;25.35;24.07;99258.55;105251;1284;97743;-75
2022/05/16 11:12:32;;;;;;;8.60;2.40;;;;;;;25.18;24.11;99255.39;105277;1284;112924;-72
2022/05/16 11:15:10;;;;;;;7.50;2.80;;;;;;;25.02;24.26;99252.20;105318;1284;99303;-74
2022/05/16 11:17:55;;;;;;;9.30;2.80;;;;;;;24.94;24.34;99256.64;105446;1284;107782;-82
2022/05/16 11:20:37;;;;;;;6.80;2.30;;;;;;;24.93;24.46;99255.63;105416;1284;99249;-74
2022/05/16 11:23:11;;;;;;;6.40;2.40;;;;;;;24.81;24.49;99251.84;105312;1284;99231;-78
2022/05/16 11:26:16;;;;;;;6.40;2.20;;;;;;;24.70;24.48;99248.09;105210;1284;112828;-75
2022/05/16 11:29:17;;;;;;;6.90;2.00;;;;;;;24.63;24.66;99247.18;105293;1284;99189;-76
2022/05/16 11:31:54;;;;;;;5.50;2.40;;;;;;;24.50;24.78;99244.30;105244;1284;107751;-77
2022/05/16 11:34:45;;;;;;;7.20;2.20;;;;;;;24.46;24.68;99238.48;105266;1284;98371;-75
2022/05/16 11:37:28;;;;;;;8.40;2.30;;;;;;;24.46;25.02;99234.73;104573;1285;96759;-76
2022/05/16 11:40:02;;;;;;;;;;;;;;;24.48;25.02;99233.27;105177;1284;112796;-74
2022/05/16 11:43:02;;;;;;;4.80;1.90;;;;;;;24.48;25.01;99234.23;105050;1284;99226;-73
2022/05/16 11:46:06;;;;;;;7.40;2.10;;;;;;;24.46;25.31;99225.83;105127;1284;106635;-76
2022/05/16 11:48:43;;;;;;;7.90;2.30;;;;;;;24.52;25.20;99228.29;105246;1284;100016;-75
2022/05/16 11:51:37;;;;;;;5.30;2.40;;;;;;;24.49;25.32;99226.55;105188;1284;99691;-76
2022/05/16 11:54:07;;;;;;;7.10;2.50;;;;;;;24.40;25.27;99221.02;105103;1284;112750;-78
2022/05/16 12:02:59;;;;;;;8.10;2.30;;;;;;;23.92;25.46;99226.86;105393;1284;97227;-76
2022/05/16 12:05:43;;;;;;;4.50;2.20;;;;;;;23.83;25.38;99229.16;105242;1284;97248;-75
2022/05/16 12:08:36;;;;;;;7.30;1.90;;;;;;;23.69;25.34;99228.06;105226;1284;112897;-75
2022/05/16 12:11:07;;;;;;;9.30;2.40;;;;;;;23.60;25.48;99218.67;105354;1284;99272;-73
2022/05/16 12:14:01;;;;;;;4.70;1.80;;;;;;;23.59;25.62;99218.08;105368;1284;108960;-79
2022/05/16 12:16:37;;;;;;;9.90;2.30;;;;;;;23.62;25.60;99217.64;105437;1284;97336;-76
2022/05/16 12:19:27;;;;;;;7.30;2.40;;;;;;;23.69;25.66;99217.78;105087;1286;99351;-79
2022/05/16 12:22:00;;;;;;;9.50;2.40;;;;;;;23.65;25.77;99217.74;105046;1284;114178;-79
2022/05/16 12:24:40;;;;;;;8.30;2.80;;;;;;;23.63;25.78;99215.44;105391;1286;99311;-76
2022/05/16 12:27:25;;;;;;;6.50;2.80;;;;;;;23.66;25.96;99213.11;105294;1285;107874;-76
2022/05/16 12:29:58;;;;;;;8.90;2.70;;;;;;;23.71;25.87;99208.40;105424;1284;99272;-76
2022/05/16 12:32:29;;;;;;;5.80;2.70;;;;;;;23.75;25.96;99211.62;105341;1284;99366;-77